Time;durP1;ratioP1;P1;durP2;ratioP2;P2;SDS_P1;SDS_P2;PMS_P1;PMS_P2;Temp;Humidity;BMP_temperature;BMP_pressure;BME280_temperature;BME280_humidity;BME280_pressure;Samples;Min_cycle;Max_cycle;Signal;HPM_P1;HPM_P2
2021/06/14 00:00:29;;;;;;;8.63;3.13;;;;;;;20.87;65.81;101242.13;4994367;28;20034;-86
2021/06/14 00:02:54;;;;;;;4.15;2.33;;;;;;;20.83;66.16;101254.09;4995743;28;20030;-86
2021/06/14 00:05:32;;;;;;;4.75;2.40;;;;;;;20.79;66.21;101247.38;4994584;28;20035;-86
2021/06/14 00:07:58;;;;;;;6.63;2.92;;;;;;;20.71;66.73;101245.47;4994441;28;20031;-86
2021/06/14 00:10:26;;;;;;;5.40;2.55;;;;;;;20.69;67.38;101246.63;4994435;28;20031;-86
2021/06/14 00:12:52;;;;;;;5.25;2.35;;;;;;;20.53;67.54;101245.41;4994836;28;20053;-86
2021/06/14 00:15:18;;;;;;;4.30;2.75;;;;;;;20.54;67.36;101235.59;4994296;28;20125;-85
2021/06/14 00:17:44;;;;;;;4.13;2.22;;;;;;;20.46;67.89;101233.66;5009581;28;20148;-86
2021/06/14 00:20:12;;;;;;;8.30;2.63;;;;;;;20.45;68.49;101239.13;4994255;28;20133;-86
2021/06/14 00:22:39;;;;;;;6.82;2.80;;;;;;;20.31;68.55;101233.31;4994099;28;20026;-86
2021/06/14 00:25:08;;;;;;;4.93;2.35;;;;;;;20.32;68.59;101231.47;4994312;28;20100;-86
2021/06/14 00:27:33;;;;;;;4.72;2.58;;;;;;;20.24;68.64;101228.69;4994484;28;20026;-86
2021/06/14 00:29:58;;;;;;;4.88;2.55;;;;;;;20.18;68.39;101224.78;4994013;28;20033;-86
2021/06/14 00:32:24;;;;;;;8.50;2.72;;;;;;;20.51;66.99;101222.53;5009221;28;20398;-86
2021/06/14 00:34:49;;;;;;;6.45;2.40;;;;;;;20.64;66.25;101216.88;5013652;28;20161;-86
2021/06/14 00:37:14;;;;;;;5.45;2.20;;;;;;;20.65;65.64;101216.72;5013404;28;20029;-86
2021/06/14 00:39:40;;;;;;;6.57;2.95;;;;;;;20.76;65.51;101210.34;5013562;28;20030;-86
2021/06/14 00:42:05;;;;;;;5.28;2.47;;;;;;;20.77;65.36;101201.31;5013450;28;20026;-86
2021/06/14 00:44:31;;;;;;;7.20;3.42;;;;;;;20.73;64.64;101197.28;5013432;28;20034;-85
2021/06/14 00:46:56;;;;;;;4.85;2.45;;;;;;;20.38;64.72;101193.56;4999622;28;20102;-86
2021/06/14 00:49:22;;;;;;;11.65;3.15;;;;;;;20.12;66.16;101188.91;5006128;28;20034;-86
2021/06/14 00:51:47;;;;;;;4.88;2.75;;;;;;;19.94;66.34;101190.66;5013226;28;20029;-86
2021/06/14 00:54:13;;;;;;;8.98;2.33;;;;;;;20.10;65.73;101190.03;5013296;28;20026;-86
2021/06/14 00:56:38;;;;;;;4.80;3.20;;;;;;;19.95;66.59;101181.69;5013543;28;20391;-86
2021/06/14 00:59:04;;;;;;;6.63;2.47;;;;;;;20.05;66.20;101179.81;5011816;28;20418;-86
2021/06/14 01:01:29;;;;;;;3.63;2.70;;;;;;;20.06;66.83;101184.16;5013169;28;20042;-85
2021/06/14 01:03:55;;;;;;;4.68;2.60;;;;;;;19.73;67.80;101178.41;5001882;28;20076;-86
2021/06/14 01:06:20;;;;;;;5.60;2.83;;;;;;;20.01;66.60;101179.28;4993312;28;20472;-85
2021/06/14 01:08:48;;;;;;;4.93;2.75;;;;;;;20.12;65.84;101185.41;4993291;28;20026;-86
2021/06/14 01:11:43;;;;;;;7.00;2.63;;;;;;;20.10;65.53;101179.38;4993319;28;20084;-86
2021/06/14 01:14:28;;;;;;;6.45;2.53;;;;;;;20.04;65.63;101175.47;4993445;28;20122;-86
2021/06/14 01:17:16;;;;;;;7.88;2.67;;;;;;;19.53;66.87;101179.38;4993057;28;20097;-86
2021/06/14 01:19:59;;;;;;;4.15;2.08;;;;;;;19.71;66.90;101182.19;5012029;28;20504;-86
2021/06/14 01:22:58;;;;;;;3.53;2.10;;;;;;;19.64;68.11;101181.91;5012670;28;20109;-85
2021/06/14 01:25:38;;;;;;;6.82;2.45;;;;;;;19.41;68.92;101179.56;5012525;28;20026;-85
2021/06/14 01:28:06;;;;;;;8.48;2.90;;;;;;;19.50;67.62;101171.72;5012512;28;20040;-86
2021/06/14 01:30:35;;;;;;;6.22;2.72;;;;;;;19.11;69.30;101169.94;5012682;28;20168;-86
2021/06/14 01:33:03;;;;;;;10.35;3.30;;;;;;;19.20;68.91;101162.94;5004521;28;20049;-87
2021/06/14 01:35:40;;;;;;;6.90;2.72;;;;;;;19.37;68.26;101166.66;4992498;28;20212;-86
2021/06/14 01:38:08;;;;;;;4.60;2.95;;;;;;;19.30;68.32;101168.25;4992803;28;20027;-86
2021/06/14 01:40:34;;;;;;;3.58;2.35;;;;;;;19.26;68.22;101165.03;4992724;28;20058;-86
2021/06/14 01:43:04;;;;;;;5.65;2.63;;;;;;;19.31;67.81;101162.78;4993154;28;20476;-86
2021/06/14 01:45:32;;;;;;;4.70;2.50;;;;;;;19.22;68.36;101167.13;4992328;28;20031;-86
2021/06/14 01:47:59;;;;;;;3.50;2.55;;;;;;;19.21;68.31;101161.94;4996563;28;20050;-85
2021/06/14 01:50:30;;;;;;;5.93;2.88;;;;;;;19.22;68.50;101159.13;4992758;28;20032;-86
2021/06/14 01:52:57;;;;;;;4.00;1.90;;;;;;;19.15;68.70;101157.19;4991363;28;20073;-86
2021/06/14 01:55:23;;;;;;;6.43;2.88;;;;;;;19.28;69.05;101154.22;4992668;28;20033;-85
2021/06/14 01:57:51;;;;;;;4.40;2.22;;;;;;;19.41;67.98;101155.59;4992700;28;20022;-86
2021/06/14 02:00:17;;;;;;;5.57;2.33;;;;;;;19.33;67.52;101155.50;4992428;28;20026;-86
2021/06/14 02:02:44;;;;;;;4.68;2.85;;;;;;;19.33;68.79;101151.97;4994585;28;20062;-85
2021/06/14 02:05:10;;;;;;;6.90;2.58;;;;;;;19.38;68.27;101147.91;4992745;28;20136;-86
2021/06/14 02:07:37;;;;;;;3.70;2.15;;;;;;;19.41;68.00;101139.63;4992451;28;20556;-86
2021/06/14 02:10:05;;;;;;;5.68;2.42;;;;;;;19.47;67.02;101140.88;4992426;28;20034;-86
2021/06/14 02:12:31;;;;;;;7.03;2.55;;;;;;;19.41;66.62;101142.28;4992196;28;20061;-86
2021/06/14 02:14:56;;;;;;;3.47;2.30;;;;;;;19.36;67.13;101133.88;4992213;28;20031;-86
2021/06/14 02:17:26;;;;;;;7.07;2.72;;;;;;;19.38;66.51;101129.25;4993597;28;20026;-86
2021/06/14 02:19:51;;;;;;;5.15;2.10;;;;;;;19.27;66.17;101128.56;5011557;28;20496;-86
2021/06/14 02:22:18;;;;;;;6.07;2.67;;;;;;;19.27;66.40;101129.41;5011536;28;20045;-86
2021/06/14 02:24:44;;;;;;;8.00;2.80;;;;;;;19.23;67.80;101117.38;5011855;28;20033;-86
2021/06/14 02:27:12;;;;;;;3.63;2.65;;;;;;;19.05;68.55;101125.25;5011992;28;20499;-86
2021/06/14 02:29:38;;;;;;;8.63;2.60;;;;;;;18.96;68.61;101115.47;5011792;28;20500;-86
2021/06/14 02:32:04;;;;;;;5.82;2.33;;;;;;;18.94;68.91;101112.94;5010223;28;20036;-86
2021/06/14 02:34:29;;;;;;;5.85;2.38;;;;;;;18.91;68.86;101107.91;4992136;28;20022;-86
2021/06/14 02:36:56;;;;;;;6.30;2.55;;;;;;;18.91;68.77;101099.91;4992272;28;20096;-86
2021/06/14 02:39:28;;;;;;;4.78;2.10;;;;;;;18.98;68.92;101109.03;4992313;28;20114;-86
2021/06/14 02:41:55;;;;;;;6.45;2.85;;;;;;;18.84;69.11;101112.13;4990743;28;20026;-86
2021/06/14 02:44:23;;;;;;;5.93;2.47;;;;;;;18.90;69.57;101100.91;4992015;28;20034;-85
2021/06/14 02:46:49;;;;;;;3.55;2.10;;;;;;;18.91;69.24;101085.78;4993001;28;20069;-86
2021/06/14 02:49:16;;;;;;;4.97;2.65;;;;;;;18.90;69.27;101090.25;5006466;28;20030;-85
2021/06/14 02:51:44;;;;;;;5.72;2.63;;;;;;;18.90;68.86;101092.94;4992131;28;20034;-86
2021/06/14 02:54:18;;;;;;;4.90;2.25;;;;;;;18.96;68.66;101089.69;4991972;28;20125;-86
2021/06/14 02:56:46;;;;;;;6.20;2.40;;;;;;;18.72;69.10;101091.91;4993794;28;20380;-86
2021/06/14 02:59:14;;;;;;;5.00;2.20;;;;;;;18.71;68.70;101084.91;4995826;28;20034;-86
2021/06/14 03:01:44;;;;;;;5.50;2.67;;;;;;;18.72;68.61;101078.59;4996008;28;20038;-86
2021/06/14 03:04:09;;;;;;;4.30;2.17;;;;;;;18.65;67.84;101082.81;4995627;28;20041;-86
2021/06/14 03:06:35;;;;;;;6.30;2.78;;;;;;;18.63;69.11;101070.50;4995690;28;20034;-86
2021/06/14 03:09:05;;;;;;;4.88;2.53;;;;;;;18.70;68.68;101069.94;4996000;28;20026;-85
2021/06/14 03:11:30;;;;;;;3.95;2.30;;;;;;;18.60;68.92;101065.47;5007267;28;20057;-85
2021/06/14 03:13:57;;;;;;;5.07;2.40;;;;;;;18.57;68.14;101073.72;5015185;28;20472;-85
2021/06/14 03:16:25;;;;;;;6.15;2.45;;;;;;;18.34;68.78;101072.31;5015104;28;20018;-85
2021/06/14 03:18:52;;;;;;;4.90;2.20;;;;;;;18.27;68.87;101071.19;4996877;28;20030;-86
2021/06/14 03:21:19;;;;;;;6.13;2.25;;;;;;;18.30;68.78;101050.47;4995605;28;20037;-86
2021/06/14 03:23:48;;;;;;;3.20;2.15;;;;;;;18.26;69.11;101073.00;4995444;28;20257;-86
2021/06/14 03:26:14;;;;;;;6.55;2.15;;;;;;;18.27;68.60;101071.19;4995553;28;20388;-85
2021/06/14 03:28:44;;;;;;;5.68;2.13;;;;;;;18.38;67.77;101069.25;4995605;28;20026;-85
2021/06/14 03:31:11;;;;;;;4.93;2.00;;;;;;;18.21;69.14;101065.44;4995431;28;20156;-85
2021/06/14 03:33:38;;;;;;;11.57;2.45;;;;;;;17.86;70.08;101062.44;5012784;28;20366;-85
2021/06/14 03:36:04;;;;;;;5.32;2.42;;;;;;;18.10;69.27;101057.59;5014735;28;20087;-86
2021/06/14 03:38:29;;;;;;;4.05;2.17;;;;;;;18.26;68.28;101058.88;5014620;28;20172;-85
2021/06/14 03:40:56;;;;;;;5.30;2.78;;;;;;;18.27;68.28;101055.25;5014438;28;20033;-85
2021/06/14 03:43:23;;;;;;;6.63;2.58;;;;;;;18.28;69.85;101068.38;5014815;28;20030;-86
2021/06/14 03:45:48;;;;;;;5.18;2.33;;;;;;;18.30;69.51;101065.59;5014643;28;20096;-86
2021/06/14 03:48:14;;;;;;;5.57;2.35;;;;;;;18.31;69.14;101056.66;4996158;28;20030;-86
2021/06/14 03:50:39;;;;;;;4.97;2.40;;;;;;;18.24;69.86;101067.81;4994863;28;20496;-86
2021/06/14 03:53:06;;;;;;;4.03;2.90;;;;;;;18.29;70.42;101069.25;4994765;28;20058;-85
2021/06/14 03:55:32;;;;;;;5.13;2.55;;;;;;;18.36;69.04;101059.72;5002292;28;20128;-86
2021/06/14 03:57:57;;;;;;;5.97;2.72;;;;;;;18.32;69.66;101051.16;5007729;28;20548;-85
2021/06/14 04:00:23;;;;;;;6.40;3.10;;;;;;;18.22;70.52;101064.44;4994565;28;20027;-86
2021/06/14 04:02:48;;;;;;;4.38;2.47;;;;;;;18.32;70.18;101068.94;4994944;28;20321;-85
2021/06/14 04:05:13;;;;;;;7.15;3.22;;;;;;;18.36;70.23;101059.72;4994470;28;20027;-86
2021/06/14 04:07:39;;;;;;;8.40;3.50;;;;;;;18.31;70.84;101076.09;4994199;28;20022;-86
2021/06/14 04:10:06;;;;;;;10.55;3.35;;;;;;;18.17;71.20;101066.69;4994507;28;20109;-86
2021/06/14 04:12:32;;;;;;;3.20;2.63;;;;;;;18.29;70.80;101069.25;4998789;28;20034;-86
2021/06/14 04:14:58;;;;;;;7.40;3.92;;;;;;;18.28;71.40;101072.88;5004814;28;20393;-86
2021/06/14 04:17:23;;;;;;;4.47;3.25;;;;;;;18.36;71.34;101075.66;4994436;28;20018;-86
2021/06/14 04:19:49;;;;;;;10.38;4.25;;;;;;;18.47;70.79;101078.19;4994458;28;20491;-86
2021/06/14 04:22:14;;;;;;;7.35;4.03;;;;;;;18.29;71.57;101079.88;4994203;28;20033;-86
2021/06/14 04:24:41;;;;;;;7.53;4.35;;;;;;;18.36;71.86;101091.63;4994165;28;20045;-86
2021/06/14 04:27:06;;;;;;;5.88;3.75;;;;;;;18.33;71.67;101102.53;4993704;28;20101;-85
2021/06/14 04:29:32;;;;;;;9.57;3.47;;;;;;;18.39;72.12;101096.66;5013558;28;20483;-86
2021/06/14 04:31:58;;;;;;;7.88;3.63;;;;;;;18.50;72.20;101109.81;5013790;28;20026;-86
2021/06/14 04:34:23;;;;;;;7.55;4.55;;;;;;;18.47;72.92;101115.44;5013713;28;20452;-86
2021/06/14 04:36:49;;;;;;;6.43;4.43;;;;;;;18.44;73.77;101107.72;5002008;28;20026;-85
2021/06/14 04:39:15;;;;;;;9.85;4.43;;;;;;;18.47;74.24;101112.78;4994234;28;20460;-86
2021/06/14 04:41:41;;;;;;;8.15;4.15;;;;;;;18.56;73.43;101119.94;4993946;28;20038;-86
2021/06/14 04:44:06;;;;;;;7.18;4.38;;;;;;;18.63;73.52;101121.03;5012177;28;20419;-85
2021/06/14 04:46:32;;;;;;;7.75;4.40;;;;;;;18.73;73.03;101109.56;5013456;28;20029;-86
2021/06/14 04:48:57;;;;;;;8.18;4.93;;;;;;;18.90;72.29;101116.88;5010052;28;20030;-86
2021/06/14 04:51:23;;;;;;;8.25;4.50;;;;;;;19.07;71.18;101122.44;4993731;28;20392;-86
2021/06/14 04:53:48;;;;;;;7.10;3.55;;;;;;;19.16;70.79;101124.28;4992362;28;20053;-86
2021/06/14 04:56:13;;;;;;;5.90;3.58;;;;;;;19.24;70.34;101119.06;4993940;28;20113;-85
2021/06/14 04:58:39;;;;;;;8.15;4.10;;;;;;;19.35;70.60;101112.72;4993706;28;20022;-86
2021/06/14 05:01:04;;;;;;;5.78;3.42;;;;;;;19.37;69.86;101126.72;4993565;28;20461;-85
2021/06/14 05:03:30;;;;;;;9.52;4.47;;;;;;;19.33;70.02;101126.19;4993353;28;20033;-85
2021/06/14 05:05:55;;;;;;;7.65;4.22;;;;;;;19.33;68.34;101123.53;4993264;28;20034;-85
2021/06/14 05:08:20;;;;;;;7.05;3.90;;;;;;;19.48;68.40;101120.41;4993434;28;20027;-85
2021/06/14 05:10:47;;;;;;;6.00;3.90;;;;;;;19.57;68.60;101122.22;4993460;28;20018;-86
2021/06/14 05:13:12;;;;;;;7.78;3.80;;;;;;;19.59;68.83;101117.56;4993094;28;20031;-85
2021/06/14 05:15:37;;;;;;;6.60;3.67;;;;;;;19.64;68.18;101109.13;4993518;28;20056;-86
2021/06/14 05:18:03;;;;;;;5.70;3.75;;;;;;;19.72;68.60;101112.78;4993228;28;20022;-85
2021/06/14 05:20:31;;;;;;;8.52;3.72;;;;;;;19.58;68.82;101115.88;5007619;28;20429;-85
2021/06/14 05:22:58;;;;;;;7.78;3.80;;;;;;;19.66;68.02;101108.00;4991846;28;20468;-85
2021/06/14 05:25:24;;;;;;;8.85;3.72;;;;;;;19.83;67.39;101108.22;4993162;28;20037;-85
2021/06/14 05:27:50;;;;;;;6.30;3.47;;;;;;;19.87;67.92;101120.28;4993181;28;20076;-85
2021/06/14 05:30:16;;;;;;;4.10;2.88;;;;;;;19.93;68.20;101114.38;4992989;28;20420;-85
2021/06/14 05:32:43;;;;;;;5.75;2.90;;;;;;;19.93;67.99;101115.22;4992886;28;20461;-85
2021/06/14 05:35:09;;;;;;;10.35;4.25;;;;;;;20.06;67.73;101124.69;5009021;28;20524;-85
2021/06/14 05:37:35;;;;;;;5.45;3.13;;;;;;;20.07;68.09;101121.03;5012467;28;20443;-85
2021/06/14 05:40:01;;;;;;;8.43;3.42;;;;;;;20.04;67.96;101127.47;5012413;28;20022;-85
2021/06/14 05:42:26;;;;;;;8.75;3.80;;;;;;;20.14;67.62;101130.97;5012395;28;20456;-85
2021/06/14 05:44:51;;;;;;;7.35;3.28;;;;;;;20.17;67.34;101124.47;5012269;28;20140;-86
2021/06/14 05:47:17;;;;;;;7.40;3.70;;;;;;;20.28;66.83;101128.75;5012381;28;20028;-85
2021/06/14 05:49:42;;;;;;;8.27;3.72;;;;;;;20.26;65.36;101131.59;4997348;28;20077;-85
2021/06/14 05:52:08;;;;;;;7.45;4.03;;;;;;;20.32;65.33;101124.78;4992677;28;20072;-85
2021/06/14 05:54:33;;;;;;;8.98;3.97;;;;;;;20.39;64.45;101136.56;4992629;28;20061;-86
2021/06/14 05:56:59;;;;;;;10.55;3.95;;;;;;;20.48;64.61;101141.00;4992646;28;20105;-86
2021/06/14 05:59:25;;;;;;;7.18;4.28;;;;;;;20.56;65.71;101145.56;4992695;28;20018;-86
2021/06/14 06:01:50;;;;;;;10.13;4.03;;;;;;;20.62;64.83;101146.81;4992543;28;20041;-86
2021/06/14 06:04:17;;;;;;;8.48;3.80;;;;;;;20.75;63.08;101144.59;4996431;28;20030;-86
2021/06/14 06:06:42;;;;;;;6.97;3.90;;;;;;;20.85;63.51;101141.84;4992525;28;20022;-86
2021/06/14 06:09:08;;;;;;;5.07;3.72;;;;;;;21.03;63.23;101142.69;4992576;28;20145;-85
2021/06/14 06:11:33;;;;;;;7.55;4.00;;;;;;;21.35;62.70;101138.59;5006462;28;20033;-83
2021/06/14 06:13:59;;;;;;;8.25;3.67;;;;;;;21.62;61.59;101150.94;4993829;28;20481;-84
2021/06/14 06:16:24;;;;;;;9.40;3.92;;;;;;;22.08;59.20;101151.53;4995984;28;20029;-83
2021/06/14 06:18:49;;;;;;;10.80;3.83;;;;;;;22.36;57.36;101137.94;5002351;28;20464;-83
2021/06/14 06:21:15;;;;;;;6.45;2.90;;;;;;;23.22;55.16;101139.31;4992191;28;20034;-84
2021/06/14 06:23:40;;;;;;;4.72;2.60;;;;;;;23.82;52.83;101134.56;4991809;28;20026;-83
2021/06/14 06:26:06;;;;;;;7.47;2.70;;;;;;;24.45;51.70;101119.28;4975451;28;20335;-83
2021/06/14 06:28:31;;;;;;;8.70;2.35;;;;;;;25.09;49.23;101117.09;4981649;28;20460;-87
2021/06/14 06:30:57;;;;;;;11.80;2.42;;;;;;;25.56;48.85;101130.47;5009383;28;20033;-83
2021/06/14 06:33:22;;;;;;;5.80;2.50;;;;;;;25.80;48.04;101123.97;5010493;28;20480;-83
2021/06/14 06:35:48;;;;;;;4.93;2.13;;;;;;;25.76;48.42;101128.03;5010801;28;20487;-83
2021/06/14 06:38:13;;;;;;;7.25;2.08;;;;;;;26.31;46.98;101132.88;5008991;28;20121;-83
2021/06/14 06:40:38;;;;;;;5.45;2.30;;;;;;;26.55;46.21;101122.78;5005339;28;20034;-83
2021/06/14 06:43:04;;;;;;;5.72;2.17;;;;;;;26.81;45.80;101122.22;5007692;28;20018;-83
2021/06/14 06:45:29;;;;;;;11.50;2.00;;;;;;;27.92;43.30;101124.22;4997020;28;20484;-83
2021/06/14 06:47:55;;;;;;;7.57;2.08;;;;;;;28.07;40.60;101124.91;5007675;28;20036;-83
2021/06/14 06:50:20;;;;;;;15.10;2.10;;;;;;;28.55;39.78;101126.72;4998657;28;20022;-83
2021/06/14 06:52:46;;;;;;;9.32;1.92;;;;;;;28.53;39.25;101125.25;5009444;28;20468;-86
2021/06/14 06:55:13;;;;;;;9.55;2.15;;;;;;;28.51;39.31;101124.63;5010790;28;20032;-83
2021/06/14 06:57:40;;;;;;;10.80;3.15;;;;;;;29.44;38.42;101121.91;5000751;28;20030;-83
2021/06/14 07:00:09;;;;;;;9.10;1.83;;;;;;;30.15;37.32;101114.81;4995681;28;20378;-83
2021/06/14 07:02:34;;;;;;;5.00;1.52;;;;;;;29.59;37.31;101116.28;4995623;28;20484;-83
2021/06/14 07:05:00;;;;;;;15.70;3.13;;;;;;;30.62;35.83;101112.66;4995752;28;20030;-83
2021/06/14 07:07:25;;;;;;;21.60;2.22;;;;;;;30.72;34.96;101106.75;5000126;28;20057;-83
2021/06/14 07:09:51;;;;;;;9.75;1.90;;;;;;;31.75;33.50;101105.34;5002243;28;20027;-84
2021/06/14 07:12:16;;;;;;;3.90;1.05;;;;;;;31.85;33.08;101113.75;4997128;28;20031;-83
2021/06/14 07:14:41;;;;;;;6.05;1.40;;;;;;;32.67;32.29;101101.59;5012141;28;20029;-84
2021/06/14 07:17:08;;;;;;;15.77;2.85;;;;;;;31.58;32.45;101111.38;4995412;28;20561;-83
2021/06/14 07:19:33;;;;;;;13.88;2.08;;;;;;;32.45;31.67;101106.72;5012882;28;20396;-84
2021/06/14 07:21:58;;;;;;;5.20;1.20;;;;;;;32.84;31.09;101098.97;5007713;28;20026;-84
2021/06/14 07:24:24;;;;;;;3.92;1.15;;;;;;;33.74;30.80;101101.28;4996287;28;20219;-84
2021/06/14 07:26:49;;;;;;;8.00;1.38;;;;;;;33.73;29.56;101104.25;4999255;28;20503;-84
2021/06/14 07:29:15;;;;;;;6.82;1.23;;;;;;;33.69;28.79;101095.75;5006573;28;20093;-84
2021/06/14 07:31:40;;;;;;;4.20;1.23;;;;;;;33.63;29.42;101104.03;5004006;28;20026;-85
2021/06/14 07:34:08;;;;;;;6.32;1.30;;;;;;;34.24;28.01;101099.78;4999762;28;20042;-84
2021/06/14 07:36:34;;;;;;;4.20;1.30;;;;;;;34.67;28.47;101098.38;5008791;28;20103;-85
2021/06/14 07:38:59;;;;;;;11.93;5.05;;;;;;;34.79;28.33;101105.66;5011344;28;20038;-85
2021/06/14 07:41:24;;;;;;;6.60;1.60;;;;;;;35.18;27.83;101097.53;5011245;28;20476;-85
2021/06/14 07:43:51;;;;;;;13.07;3.78;;;;;;;35.90;26.78;101088.31;5008966;28;20037;-85
2021/06/14 07:46:17;;;;;;;6.82;1.30;;;;;;;35.86;25.78;101082.56;5009182;28;20036;-84
2021/06/14 07:48:42;;;;;;;2.55;1.20;;;;;;;35.27;26.44;101075.00;5007295;28;20451;-85
2021/06/14 07:51:09;;;;;;;4.82;1.25;;;;;;;36.40;25.69;101080.91;5003357;28;20034;-85
2021/06/14 07:53:35;;;;;;;3.88;1.13;;;;;;;36.00;26.22;101061.13;5004813;28;20113;-85
2021/06/14 07:56:00;;;;;;;3.20;1.00;;;;;;;36.41;25.31;101066.94;5011190;28;20120;-85
2021/06/14 07:58:26;;;;;;;3.63;0.80;;;;;;;36.74;25.44;101054.09;5008647;28;20064;-85
2021/06/14 08:00:52;;;;;;;5.13;1.25;;;;;;;35.98;26.26;101070.63;5004047;28;20026;-85
2021/06/14 08:03:20;;;;;;;6.03;0.90;;;;;;;36.52;26.26;101070.59;5006511;28;20026;-85
2021/06/14 08:05:46;;;;;;;4.38;1.60;;;;;;;37.11;24.83;101065.00;4999534;28;20419;-85
2021/06/14 08:08:12;;;;;;;3.60;1.33;;;;;;;37.66;24.58;101064.69;5001368;28;20057;-85
2021/06/14 08:10:38;;;;;;;4.38;1.10;;;;;;;37.64;24.76;101061.41;4999726;28;20053;-85
2021/06/14 08:13:04;;;;;;;6.75;1.75;;;;;;;37.50;24.19;101055.59;4997337;28;20058;-85
2021/06/14 08:15:30;;;;;;;2.10;1.00;;;;;;;37.95;24.43;101056.00;5004518;28;20021;-85
2021/06/14 08:18:10;;;;;;;6.30;0.85;;;;;;;38.37;24.33;101058.53;4997327;28;20459;-85
2021/06/14 08:20:46;;;;;;;6.68;1.13;;;;;;;38.40;23.86;101055.22;5007149;28;20084;-85
2021/06/14 08:25:56;;;;;;;2.92;0.88;;;;;;;38.72;23.10;101050.56;5009027;28;20080;-84
2021/06/14 08:28:21;;;;;;;11.27;1.35;;;;;;;37.87;23.35;101054.63;4998880;28;20453;-85
2021/06/14 08:30:47;;;;;;;5.38;0.73;;;;;;;38.44;22.72;101052.75;4997206;28;20018;-85
2021/06/14 08:33:12;;;;;;;5.32;1.00;;;;;;;38.04;23.13;101055.19;5001002;28;20048;-85
2021/06/14 08:35:38;;;;;;;7.43;1.48;;;;;;;38.84;23.10;101062.03;4993785;28;20022;-84
2021/06/14 08:38:04;;;;;;;3.58;1.05;;;;;;;38.16;23.40;101057.69;4993802;28;20027;-84
2021/06/14 08:40:35;;;;;;;3.92;0.95;;;;;;;38.36;23.83;101062.34;4993893;28;20026;-84
2021/06/14 08:43:05;;;;;;;2.88;1.10;;;;;;;39.07;22.59;101050.47;4993593;28;20116;-85
2021/06/14 08:45:33;;;;;;;5.10;1.30;;;;;;;39.60;22.60;101062.91;4994917;28;20374;-85
2021/06/14 08:47:59;;;;;;;2.92;0.85;;;;;;;38.55;23.85;101070.88;4993325;28;20604;-84
2021/06/14 08:50:24;;;;;;;2.38;0.93;;;;;;;39.13;22.86;101065.00;5006408;28;20040;-85
2021/06/14 08:52:51;;;;;;;2.10;1.05;;;;;;;38.42;23.20;101065.94;5013210;28;20030;-85
2021/06/14 08:55:17;;;;;;;2.88;0.90;;;;;;;38.24;23.55;101068.13;5002502;28;20053;-85
2021/06/14 08:57:42;;;;;;;3.45;1.00;;;;;;;38.67;23.47;101071.41;5004879;28;20057;-85
2021/06/14 09:00:12;;;;;;;2.00;0.90;;;;;;;38.76;23.76;101070.84;4998072;28;20026;-85
2021/06/14 09:02:38;;;;;;;3.73;1.00;;;;;;;38.96;23.23;101070.78;5005583;28;20397;-85
2021/06/14 09:05:05;;;;;;;8.68;0.80;;;;;;;38.36;23.50;101076.06;5003785;28;20296;-85
2021/06/14 09:07:31;;;;;;;5.20;0.57;;;;;;;38.52;23.24;101074.16;5008495;28;20034;-85
2021/06/14 09:09:56;;;;;;;2.05;0.43;;;;;;;39.38;23.14;101076.97;5005758;28;20384;-85
2021/06/14 09:12:22;;;;;;;1.35;0.50;;;;;;;38.22;24.28;101084.03;4993026;28;20038;-85
2021/06/14 09:14:48;;;;;;;3.55;0.52;;;;;;;39.51;23.11;101081.09;4987876;28;20034;-84
2021/06/14 09:17:17;;;;;;;1.48;0.35;;;;;;;38.47;23.71;101080.47;4993337;28;20110;-85
2021/06/14 09:19:51;;;;;;;0.30;0.20;;;;;;;37.84;23.88;101077.09;4993452;28;20473;-85
2021/06/14 09:22:21;;;;;;;1.13;0.50;;;;;;;38.58;23.37;101075.81;4993098;28;20066;-84
2021/06/14 09:25:03;;;;;;;0.88;0.20;;;;;;;39.63;21.86;101084.31;4992946;28;20370;-84
2021/06/14 09:27:41;;;;;;;1.83;0.40;;;;;;;39.31;22.43;101071.81;4993311;28;20346;-84
2021/06/14 09:30:27;;;;;;;1.60;0.55;;;;;;;38.87;23.40;101083.47;4993046;28;20030;-84
2021/06/14 09:33:19;;;;;;;4.85;0.60;;;;;;;39.69;21.66;101087.84;4977633;28;20030;-84
2021/06/14 09:35:45;;;;;;;1.88;0.43;;;;;;;39.78;21.96;101075.16;4973300;28;20045;-84
2021/06/14 09:38:16;;;;;;;1.77;0.50;;;;;;;39.33;22.29;101074.28;4973700;28;20482;-84
2021/06/14 09:41:00;;;;;;;3.85;0.55;;;;;;;38.71;22.32;101081.81;4973340;28;20049;-84
2021/06/14 09:43:35;;;;;;;1.55;0.47;;;;;;;38.51;22.69;101086.22;4973027;28;20027;-84
2021/06/14 09:46:04;;;;;;;1.30;0.50;;;;;;;38.22;22.86;101072.25;4973149;28;20090;-84
2021/06/14 09:48:31;;;;;;;2.92;0.60;;;;;;;39.01;22.93;101075.50;4973640;28;20077;-84
2021/06/14 09:51:04;;;;;;;6.57;0.75;;;;;;;39.38;22.78;101069.59;4973306;28;20023;-84
2021/06/14 09:53:35;;;;;;;3.92;0.95;;;;;;;40.48;21.05;101066.69;4973205;28;20031;-84
2021/06/14 09:56:35;;;;;;;2.65;0.28;;;;;;;41.22;20.47;101070.06;4973419;28;20105;-84
2021/06/14 09:59:02;;;;;;;1.52;0.50;;;;;;;40.50;22.12;101071.91;4990181;28;20109;-84
2021/06/14 10:01:34;;;;;;;2.63;0.63;;;;;;;39.60;21.76;101068.41;4992374;28;20022;-84
2021/06/14 10:04:06;;;;;;;1.67;0.40;;;;;;;39.42;22.57;101067.94;5000712;28;20053;-85
2021/06/14 10:06:43;;;;;;;2.65;0.82;;;;;;;40.23;21.39;101071.28;4996829;28;20108;-85
2021/06/14 10:09:18;;;;;;;5.30;0.47;;;;;;;40.01;21.81;101074.50;5004001;28;20057;-85
2021/06/14 10:11:45;;;;;;;6.03;0.60;;;;;;;39.68;22.15;101078.81;5004648;28;20594;-85
2021/06/14 10:14:21;;;;;;;2.45;0.68;;;;;;;39.94;21.97;101073.16;5007239;28;20479;-85
2021/06/14 10:16:49;;;;;;;2.53;0.40;;;;;;;39.85;21.97;101071.00;5006060;28;20558;-85
2021/06/14 10:19:17;;;;;;;4.55;0.90;;;;;;;40.58;20.96;101066.63;5003887;28;20033;-85
2021/06/14 10:21:45;;;;;;;5.07;1.00;;;;;;;40.39;21.82;101076.69;5009452;28;20058;-85
2021/06/14 10:24:14;;;;;;;2.30;0.63;;;;;;;39.51;22.27;101068.16;5006757;28;20034;-84
2021/06/14 10:26:42;;;;;;;3.97;1.15;;;;;;;40.16;21.73;101069.97;5003942;28;20022;-85
2021/06/14 10:29:12;;;;;;;2.28;0.80;;;;;;;39.90;22.50;101067.41;5009331;28;20083;-84
2021/06/14 10:31:39;;;;;;;3.92;1.15;;;;;;;40.02;22.10;101058.81;5004929;28;20447;-84
2021/06/14 10:34:06;;;;;;;4.80;1.27;;;;;;;40.51;21.64;101054.31;4992307;28;20117;-84
2021/06/14 10:36:32;;;;;;;6.30;0.85;;;;;;;41.08;21.62;101058.13;4996719;28;20157;-90
2021/06/14 10:39:01;;;;;;;2.28;1.00;;;;;;;40.98;20.99;101058.25;5004448;28;20422;-85
2021/06/14 10:41:27;;;;;;;3.00;1.17;;;;;;;40.84;21.33;101052.59;4996830;28;20026;-84
2021/06/14 10:43:53;;;;;;;3.50;1.30;;;;;;;40.08;21.99;101054.91;5005691;28;20492;-84
2021/06/14 10:46:22;;;;;;;6.75;1.50;;;;;;;40.16;22.24;101051.53;5003474;28;20396;-84
2021/06/14 10:48:53;;;;;;;9.90;5.25;;;;;;;40.48;22.32;101047.44;5006011;28;20052;-86
2021/06/14 10:51:20;;;;;;;2.90;1.10;;;;;;;40.38;22.57;101044.78;4993011;28;20369;-87
2021/06/14 10:53:52;;;;;;;2.72;1.15;;;;;;;40.59;21.80;101045.41;5007006;28;20025;-83
2021/06/14 10:56:24;;;;;;;7.07;1.20;;;;;;;40.69;22.42;101050.00;5002166;28;20050;-82
2021/06/14 10:59:00;;;;;;;19.08;2.22;;;;;;;40.99;21.50;101055.16;5003820;28;20037;-82
2021/06/14 11:01:39;;;;;;;99.50;13.13;;;;;;;41.00;22.43;101053.25;5003470;28;20022;-83
2021/06/14 11:04:07;;;;;;;9.25;1.40;;;;;;;41.47;21.64;101045.22;5006114;28;20177;-83
2021/06/14 11:06:35;;;;;;;5.38;1.50;;;;;;;40.92;22.16;101038.19;5003112;28;20476;-83
2021/06/14 11:09:12;;;;;;;3.75;1.30;;;;;;;41.14;21.60;101043.16;5009395;28;20066;-86
2021/06/14 11:11:46;;;;;;;3.30;1.10;;;;;;;40.81;21.74;101047.69;5004259;28;20029;-87
2021/06/14 11:14:13;;;;;;;8.52;1.40;;;;;;;41.25;22.28;101051.31;4993205;28;20104;-84
2021/06/14 11:16:40;;;;;;;4.35;1.15;;;;;;;41.20;22.07;101049.47;5005698;28;20099;-84
2021/06/14 11:19:08;;;;;;;5.10;1.60;;;;;;;40.63;22.38;101052.78;5006134;28;20439;-84
2021/06/14 11:21:34;;;;;;;4.07;1.30;;;;;;;41.23;21.63;101048.84;4975767;28;20091;-84
2021/06/14 11:24:11;;;;;;;2.88;0.75;;;;;;;40.75;22.36;101046.09;4983357;28;20038;-84
2021/06/14 11:26:38;;;;;;;2.58;1.42;;;;;;;39.33;22.94;101042.13;4997366;28;20027;-84
2021/06/14 11:29:15;;;;;;;3.97;1.10;;;;;;;40.73;23.09;101048.28;5014981;28;20384;-84